sensor_id;sensor_type;location;lat;lon;timestamp;P1;durP1;ratioP1;P2;durP2;ratioP2
37001;SDS011;22913;51.910;8.374;2023-03-23T00:00:46;2.53;;;2.33;;
37001;SDS011;22913;51.910;8.374;2023-03-23T00:03:31;3.67;;;2.30;;
37001;SDS011;22913;51.910;8.374;2023-03-23T00:06:18;3.17;;;2.40;;
37001;SDS011;22913;51.910;8.374;2023-03-23T00:09:06;2.97;;;2.67;;
37001;SDS011;22913;51.910;8.374;2023-03-23T00:11:53;3.37;;;2.57;;
37001;SDS011;22913;51.910;8.374;2023-03-23T00:14:40;2.90;;;2.60;;
37001;SDS011;22913;51.910;8.374;2023-03-23T00:17:26;4.07;;;2.90;;
37001;SDS011;22913;51.910;8.374;2023-03-23T00:20:13;5.80;;;3.03;;
37001;SDS011;22913;51.910;8.374;2023-03-23T00:23:00;3.53;;;3.03;;
37001;SDS011;22913;51.910;8.374;2023-03-23T00:25:47;2.60;;;2.40;;
37001;SDS011;22913;51.910;8.374;2023-03-23T00:28:34;5.17;;;2.73;;
37001;SDS011;22913;51.910;8.374;2023-03-23T00:31:19;3.83;;;2.67;;
37001;SDS011;22913;51.910;8.374;2023-03-23T00:34:05;3.90;;;2.57;;
37001;SDS011;22913;51.910;8.374;2023-03-23T00:36:52;4.20;;;2.80;;
37001;SDS011;22913;51.910;8.374;2023-03-23T00:39:40;6.10;;;2.80;;
37001;SDS011;22913;51.910;8.374;2023-03-23T00:42:29;2.93;;;2.60;;
37001;SDS011;22913;51.910;8.374;2023-03-23T00:45:20;4.73;;;3.07;;
37001;SDS011;22913;51.910;8.374;2023-03-23T00:48:05;3.67;;;2.73;;
37001;SDS011;22913;51.910;8.374;2023-03-23T00:50:51;4.60;;;3.23;;
37001;SDS011;22913;51.910;8.374;2023-03-23T00:53:37;3.57;;;2.50;;
37001;SDS011;22913;51.910;8.374;2023-03-23T00:56:23;3.17;;;2.87;;
37001;SDS011;22913;51.910;8.374;2023-03-23T00:59:11;3.30;;;2.57;;
37001;SDS011;22913;51.910;8.374;2023-03-23T01:01:56;2.97;;;2.70;;
37001;SDS011;22913;51.910;8.374;2023-03-23T01:04:42;4.70;;;2.80;;
37001;SDS011;22913;51.910;8.374;2023-03-23T01:07:30;4.20;;;3.10;;
37001;SDS011;22913;51.910;8.374;2023-03-23T01:10:16;3.10;;;2.60;;
37001;SDS011;22913;51.910;8.374;2023-03-23T01:13:02;2.43;;;2.23;;
37001;SDS011;22913;51.910;8.374;2023-03-23T01:15:49;2.20;;;2.10;;
37001;SDS011;22913;51.910;8.374;2023-03-23T01:18:34;3.07;;;2.60;;
37001;SDS011;22913;51.910;8.374;2023-03-23T01:21:20;4.10;;;2.50;;
37001;SDS011;22913;51.910;8.374;2023-03-23T01:24:08;5.47;;;2.37;;
37001;SDS011;22913;51.910;8.374;2023-03-23T01:26:54;3.87;;;2.70;;
37001;SDS011;22913;51.910;8.374;2023-03-23T01:29:39;2.40;;;2.20;;
37001;SDS011;22913;51.910;8.374;2023-03-23T01:32:26;2.70;;;2.30;;
37001;SDS011;22913;51.910;8.374;2023-03-23T01:35:12;2.83;;;2.30;;
37001;SDS011;22913;51.910;8.374;2023-03-23T01:37:57;3.10;;;2.20;;
37001;SDS011;22913;51.910;8.374;2023-03-23T01:40:43;4.73;;;2.33;;
37001;SDS011;22913;51.910;8.374;2023-03-23T01:43:29;3.83;;;2.23;;
37001;SDS011;22913;51.910;8.374;2023-03-23T01:46:15;2.57;;;2.33;;
37001;SDS011;22913;51.910;8.374;2023-03-23T01:49:03;3.03;;;2.10;;
37001;SDS011;22913;51.910;8.374;2023-03-23T01:51:54;2.40;;;2.20;;
37001;SDS011;22913;51.910;8.374;2023-03-23T01:54:42;5.47;;;2.30;;
37001;SDS011;22913;51.910;8.374;2023-03-23T01:57:29;2.90;;;2.20;;
37001;SDS011;22913;51.910;8.374;2023-03-23T02:00:16;2.67;;;1.97;;
37001;SDS011;22913;51.910;8.374;2023-03-23T02:03:02;2.40;;;2.20;;
37001;SDS011;22913;51.910;8.374;2023-03-23T02:05:49;2.50;;;2.13;;
37001;SDS011;22913;51.910;8.374;2023-03-23T02:08:35;2.60;;;2.40;;
37001;SDS011;22913;51.910;8.374;2023-03-23T02:11:23;3.33;;;2.13;;
37001;SDS011;22913;51.910;8.374;2023-03-23T02:14:08;4.20;;;2.70;;
37001;SDS011;22913;51.910;8.374;2023-03-23T02:16:55;2.80;;;2.40;;
37001;SDS011;22913;51.910;8.374;2023-03-23T02:19:52;3.03;;;2.63;;
37001;SDS011;22913;51.910;8.374;2023-03-23T02:23:00;2.70;;;2.50;;
37001;SDS011;22913;51.910;8.374;2023-03-23T02:26:11;4.03;;;2.77;;
37001;SDS011;22913;51.910;8.374;2023-03-23T02:29:10;4.17;;;2.73;;
37001;SDS011;22913;51.910;8.374;2023-03-23T02:32:16;3.97;;;2.53;;
37001;SDS011;22913;51.910;8.374;2023-03-23T02:35:21;3.17;;;2.67;;
37001;SDS011;22913;51.910;8.374;2023-03-23T02:38:14;3.10;;;2.50;;
37001;SDS011;22913;51.910;8.374;2023-03-23T02:41:02;2.73;;;2.53;;
37001;SDS011;22913;51.910;8.374;2023-03-23T02:43:48;3.50;;;2.40;;
37001;SDS011;22913;51.910;8.374;2023-03-23T02:46:35;4.53;;;2.73;;
37001;SDS011;22913;51.910;8.374;2023-03-23T02:49:21;2.40;;;2.30;;
37001;SDS011;22913;51.910;8.374;2023-03-23T02:52:10;2.23;;;2.10;;
37001;SDS011;22913;51.910;8.374;2023-03-23T02:54:59;2.37;;;2.17;;
37001;SDS011;22913;51.910;8.374;2023-03-23T02:57:46;2.20;;;2.00;;
37001;SDS011;22913;51.910;8.374;2023-03-23T03:00:32;2.13;;;2.00;;
37001;SDS011;22913;51.910;8.374;2023-03-23T03:03:19;2.27;;;2.00;;
37001;SDS011;22913;51.910;8.374;2023-03-23T03:06:10;2.53;;;2.23;;
37001;SDS011;22913;51.910;8.374;2023-03-23T03:09:11;2.17;;;2.07;;
37001;SDS011;22913;51.910;8.374;2023-03-23T03:12:02;2.70;;;1.80;;
37001;SDS011;22913;51.910;8.374;2023-03-23T03:14:54;1.93;;;1.83;;
37001;SDS011;22913;51.910;8.374;2023-03-23T03:17:48;1.73;;;1.63;;
37001;SDS011;22913;51.910;8.374;2023-03-23T03:20:40;2.07;;;1.87;;
37001;SDS011;22913;51.910;8.374;2023-03-23T03:23:28;2.93;;;1.87;;
37001;SDS011;22913;51.910;8.374;2023-03-23T03:26:18;3.67;;;2.30;;
37001;SDS011;22913;51.910;8.374;2023-03-23T03:29:05;2.40;;;2.10;;
37001;SDS011;22913;51.910;8.374;2023-03-23T03:31:52;2.40;;;2.20;;
37001;SDS011;22913;51.910;8.374;2023-03-23T03:34:39;3.47;;;2.60;;
37001;SDS011;22913;51.910;8.374;2023-03-23T03:37:25;2.07;;;1.80;;
37001;SDS011;22913;51.910;8.374;2023-03-23T03:40:11;1.90;;;1.80;;
37001;SDS011;22913;51.910;8.374;2023-03-23T03:43:00;2.33;;;2.13;;
37001;SDS011;22913;51.910;8.374;2023-03-23T03:45:47;4.43;;;2.03;;
37001;SDS011;22913;51.910;8.374;2023-03-23T03:48:32;4.23;;;2.10;;
37001;SDS011;22913;51.910;8.374;2023-03-23T03:51:18;2.40;;;2.00;;
37001;SDS011;22913;51.910;8.374;2023-03-23T03:54:03;2.10;;;1.90;;
37001;SDS011;22913;51.910;8.374;2023-03-23T03:56:49;3.53;;;2.23;;
37001;SDS011;22913;51.910;8.374;2023-03-23T03:59:37;4.03;;;2.20;;
37001;SDS011;22913;51.910;8.374;2023-03-23T04:02:22;3.53;;;2.37;;
37001;SDS011;22913;51.910;8.374;2023-03-23T04:05:08;2.40;;;2.20;;
37001;SDS011;22913;51.910;8.374;2023-03-23T04:07:55;3.00;;;2.60;;
37001;SDS011;22913;51.910;8.374;2023-03-23T04:10:45;2.50;;;1.90;;
37001;SDS011;22913;51.910;8.374;2023-03-23T04:13:32;2.10;;;1.90;;
37001;SDS011;22913;51.910;8.374;2023-03-23T04:16:19;2.27;;;2.07;;
37001;SDS011;22913;51.910;8.374;2023-03-23T04:19:04;2.47;;;2.00;;
37001;SDS011;22913;51.910;8.374;2023-03-23T04:21:50;2.47;;;2.10;;
37001;SDS011;22913;51.910;8.374;2023-03-23T04:24:36;2.50;;;2.30;;
37001;SDS011;22913;51.910;8.374;2023-03-23T04:27:22;2.10;;;1.90;;
37001;SDS011;22913;51.910;8.374;2023-03-23T04:30:09;2.53;;;2.33;;
37001;SDS011;22913;51.910;8.374;2023-03-23T04:32:57;2.07;;;1.97;;
37001;SDS011;22913;51.910;8.374;2023-03-23T04:35:45;3.37;;;2.03;;
37001;SDS011;22913;51.910;8.374;2023-03-23T04:38:31;2.10;;;2.00;;
37001;SDS011;22913;51.910;8.374;2023-03-23T04:41:17;2.03;;;1.93;;
37001;SDS011;22913;51.910;8.374;2023-03-23T04:44:03;1.87;;;1.77;;
37001;SDS011;22913;51.910;8.374;2023-03-23T04:46:49;2.07;;;1.90;;
37001;SDS011;22913;51.910;8.374;2023-03-23T04:49:39;3.03;;;1.90;;
37001;SDS011;22913;51.910;8.374;2023-03-23T04:52:25;2.83;;;1.97;;
37001;SDS011;22913;51.910;8.374;2023-03-23T04:55:12;2.23;;;2.00;;
37001;SDS011;22913;51.910;8.374;2023-03-23T04:57:58;1.80;;;1.70;;
37001;SDS011;22913;51.910;8.374;2023-03-23T05:00:44;2.67;;;2.13;;
37001;SDS011;22913;51.910;8.374;2023-03-23T05:03:33;2.10;;;1.90;;
37001;SDS011;22913;51.910;8.374;2023-03-23T05:06:20;2.30;;;2.10;;
37001;SDS011;22913;51.910;8.374;2023-03-23T05:09:05;2.90;;;1.70;;
37001;SDS011;22913;51.910;8.374;2023-03-23T05:11:51;1.90;;;1.80;;
37001;SDS011;22913;51.910;8.374;2023-03-23T05:14:39;1.90;;;1.80;;
37001;SDS011;22913;51.910;8.374;2023-03-23T05:17:26;2.13;;;2.00;;
37001;SDS011;22913;51.910;8.374;2023-03-23T05:20:14;2.83;;;1.87;;
37001;SDS011;22913;51.910;8.374;2023-03-23T05:23:05;2.03;;;1.87;;
37001;SDS011;22913;51.910;8.374;2023-03-23T05:25:54;3.33;;;1.80;;
37001;SDS011;22913;51.910;8.374;2023-03-23T05:28:40;1.80;;;1.70;;
37001;SDS011;22913;51.910;8.374;2023-03-23T05:31:25;2.30;;;1.70;;
37001;SDS011;22913;51.910;8.374;2023-03-23T05:34:11;3.17;;;2.13;;
37001;SDS011;22913;51.910;8.374;2023-03-23T05:36:56;2.27;;;1.90;;
37001;SDS011;22913;51.910;8.374;2023-03-23T05:39:43;1.80;;;1.70;;
37001;SDS011;22913;51.910;8.374;2023-03-23T05:42:29;2.93;;;2.00;;
37001;SDS011;22913;51.910;8.374;2023-03-23T05:45:15;2.23;;;2.07;;
37001;SDS011;22913;51.910;8.374;2023-03-23T05:48:01;3.03;;;1.57;;
37001;SDS011;22913;51.910;8.374;2023-03-23T05:50:47;1.80;;;1.70;;
37001;SDS011;22913;51.910;8.374;2023-03-23T05:53:32;2.83;;;2.10;;
37001;SDS011;22913;51.910;8.374;2023-03-23T05:56:20;2.17;;;2.00;;
37001;SDS011;22913;51.910;8.374;2023-03-23T05:59:06;2.30;;;2.10;;
37001;SDS011;22913;51.910;8.374;2023-03-23T06:01:52;2.10;;;2.00;;
37001;SDS011;22913;51.910;8.374;2023-03-23T06:04:38;2.47;;;1.83;;
37001;SDS011;22913;51.910;8.374;2023-03-23T06:07:24;2.07;;;1.90;;
37001;SDS011;22913;51.910;8.374;2023-03-23T06:10:10;1.80;;;1.70;;
37001;SDS011;22913;51.910;8.374;2023-03-23T06:12:57;1.93;;;1.80;;
37001;SDS011;22913;51.910;8.374;2023-03-23T06:15:42;2.07;;;1.97;;
37001;SDS011;22913;51.910;8.374;2023-03-23T06:18:28;2.53;;;2.00;;
37001;SDS011;22913;51.910;8.374;2023-03-23T06:21:17;2.33;;;1.90;;
37001;SDS011;22913;51.910;8.374;2023-03-23T06:24:03;2.67;;;1.80;;
37001;SDS011;22913;51.910;8.374;2023-03-23T06:26:49;4.03;;;1.90;;
37001;SDS011;22913;51.910;8.374;2023-03-23T06:29:37;2.90;;;2.17;;
37001;SDS011;22913;51.910;8.374;2023-03-23T06:32:23;1.83;;;1.67;;
37001;SDS011;22913;51.910;8.374;2023-03-23T06:35:13;3.00;;;1.90;;
37001;SDS011;22913;51.910;8.374;2023-03-23T06:37:59;1.90;;;1.80;;
37001;SDS011;22913;51.910;8.374;2023-03-23T06:40:45;2.07;;;1.87;;
37001;SDS011;22913;51.910;8.374;2023-03-23T06:43:32;3.23;;;1.80;;
37001;SDS011;22913;51.910;8.374;2023-03-23T06:46:20;3.20;;;1.90;;
37001;SDS011;22913;51.910;8.374;2023-03-23T06:49:06;1.93;;;1.83;;
37001;SDS011;22913;51.910;8.374;2023-03-23T06:51:51;2.70;;;1.80;;
37001;SDS011;22913;51.910;8.374;2023-03-23T06:54:37;4.53;;;2.93;;
37001;SDS011;22913;51.910;8.374;2023-03-23T06:57:23;2.07;;;1.80;;
37001;SDS011;22913;51.910;8.374;2023-03-23T07:00:09;2.07;;;1.97;;
37001;SDS011;22913;51.910;8.374;2023-03-23T07:02:57;2.20;;;1.90;;
37001;SDS011;22913;51.910;8.374;2023-03-23T07:05:45;2.13;;;1.67;;
37001;SDS011;22913;51.910;8.374;2023-03-23T07:08:31;3.43;;;1.80;;
37001;SDS011;22913;51.910;8.374;2023-03-23T07:11:16;1.83;;;1.70;;
37001;SDS011;22913;51.910;8.374;2023-03-23T07:14:02;2.10;;;1.90;;
37001;SDS011;22913;51.910;8.374;2023-03-23T07:16:48;2.23;;;1.80;;
37001;SDS011;22913;51.910;8.374;2023-03-23T07:19:35;1.97;;;1.83;;
37001;SDS011;22913;51.910;8.374;2023-03-23T07:22:21;2.07;;;1.87;;
37001;SDS011;22913;51.910;8.374;2023-03-23T07:25:06;3.77;;;1.90;;
37001;SDS011;22913;51.910;8.374;2023-03-23T07:27:53;3.03;;;2.07;;
37001;SDS011;22913;51.910;8.374;2023-03-23T07:30:39;3.57;;;2.03;;
37001;SDS011;22913;51.910;8.374;2023-03-23T07:33:25;3.73;;;1.97;;
37001;SDS011;22913;51.910;8.374;2023-03-23T07:36:12;2.50;;;2.30;;
37001;SDS011;22913;51.910;8.374;2023-03-23T07:38:58;2.83;;;2.33;;
37001;SDS011;22913;51.910;8.374;2023-03-23T07:41:43;3.27;;;2.50;;
37001;SDS011;22913;51.910;8.374;2023-03-23T07:44:29;3.57;;;2.27;;
37001;SDS011;22913;51.910;8.374;2023-03-23T07:47:15;3.33;;;2.50;;
37001;SDS011;22913;51.910;8.374;2023-03-23T07:50:01;2.70;;;2.30;;
37001;SDS011;22913;51.910;8.374;2023-03-23T07:52:48;2.40;;;2.20;;
37001;SDS011;22913;51.910;8.374;2023-03-23T07:55:34;2.87;;;2.17;;
37001;SDS011;22913;51.910;8.374;2023-03-23T07:58:20;2.97;;;2.40;;
37001;SDS011;22913;51.910;8.374;2023-03-23T08:01:06;3.00;;;2.07;;
37001;SDS011;22913;51.910;8.374;2023-03-23T08:03:52;2.63;;;2.10;;
37001;SDS011;22913;51.910;8.374;2023-03-23T08:06:38;3.17;;;2.00;;
37001;SDS011;22913;51.910;8.374;2023-03-23T08:09:25;3.87;;;2.00;;
37001;SDS011;22913;51.910;8.374;2023-03-23T08:12:11;3.07;;;1.80;;
37001;SDS011;22913;51.910;8.374;2023-03-23T08:14:56;2.50;;;2.30;;
37001;SDS011;22913;51.910;8.374;2023-03-23T08:17:43;5.13;;;2.27;;
37001;SDS011;22913;51.910;8.374;2023-03-23T08:20:29;4.67;;;2.20;;
37001;SDS011;22913;51.910;8.374;2023-03-23T08:23:15;4.67;;;2.30;;
37001;SDS011;22913;51.910;8.374;2023-03-23T08:26:02;3.47;;;2.13;;
37001;SDS011;22913;51.910;8.374;2023-03-23T08:28:50;3.20;;;1.93;;
37001;SDS011;22913;51.910;8.374;2023-03-23T08:31:36;3.60;;;2.23;;
37001;SDS011;22913;51.910;8.374;2023-03-23T08:34:22;3.77;;;2.00;;
37001;SDS011;22913;51.910;8.374;2023-03-23T08:37:08;3.10;;;2.20;;
37001;SDS011;22913;51.910;8.374;2023-03-23T08:39:55;4.83;;;2.13;;
37001;SDS011;22913;51.910;8.374;2023-03-23T08:42:43;4.43;;;1.77;;
37001;SDS011;22913;51.910;8.374;2023-03-23T08:45:29;5.33;;;2.37;;
37001;SDS011;22913;51.910;8.374;2023-03-23T08:48:15;3.83;;;2.23;;
37001;SDS011;22913;51.910;8.374;2023-03-23T08:51:01;4.43;;;2.20;;
37001;SDS011;22913;51.910;8.374;2023-03-23T08:53:47;4.50;;;2.00;;
37001;SDS011;22913;51.910;8.374;2023-03-23T08:56:32;4.13;;;2.23;;
37001;SDS011;22913;51.910;8.374;2023-03-23T08:59:19;4.63;;;2.33;;
37001;SDS011;22913;51.910;8.374;2023-03-23T09:02:05;2.67;;;1.87;;
37001;SDS011;22913;51.910;8.374;2023-03-23T09:04:51;5.67;;;2.27;;
37001;SDS011;22913;51.910;8.374;2023-03-23T09:07:37;2.73;;;2.13;;
37001;SDS011;22913;51.910;8.374;2023-03-23T09:10:23;5.20;;;1.93;;
37001;SDS011;22913;51.910;8.374;2023-03-23T09:13:09;4.57;;;2.20;;
37001;SDS011;22913;51.910;8.374;2023-03-23T09:15:56;3.10;;;2.03;;
37001;SDS011;22913;51.910;8.374;2023-03-23T09:18:42;3.53;;;2.20;;
37001;SDS011;22913;51.910;8.374;2023-03-23T09:21:28;5.87;;;2.50;;
37001;SDS011;22913;51.910;8.374;2023-03-23T09:24:13;2.80;;;1.80;;
37001;SDS011;22913;51.910;8.374;2023-03-23T09:26:59;3.30;;;1.90;;
37001;SDS011;22913;51.910;8.374;2023-03-23T09:29:45;5.00;;;1.90;;
37001;SDS011;22913;51.910;8.374;2023-03-23T09:32:34;4.63;;;2.10;;
37001;SDS011;22913;51.910;8.374;2023-03-23T09:35:19;2.03;;;1.73;;
37001;SDS011;22913;51.910;8.374;2023-03-23T09:38:06;3.73;;;2.10;;
37001;SDS011;22913;51.910;8.374;2023-03-23T09:40:54;3.70;;;1.97;;
37001;SDS011;22913;51.910;8.374;2023-03-23T09:43:55;5.13;;;2.40;;
37001;SDS011;22913;51.910;8.374;2023-03-23T09:46:59;2.57;;;2.03;;
37001;SDS011;22913;51.910;8.374;2023-03-23T09:49:53;4.13;;;2.37;;
37001;SDS011;22913;51.910;8.374;2023-03-23T09:52:43;2.90;;;2.23;;
37001;SDS011;22913;51.910;8.374;2023-03-23T09:55:31;4.63;;;2.00;;
37001;SDS011;22913;51.910;8.374;2023-03-23T09:58:18;4.73;;;1.90;;
37001;SDS011;22913;51.910;8.374;2023-03-23T10:01:10;3.53;;;1.97;;
37001;SDS011;22913;51.910;8.374;2023-03-23T10:04:01;4.40;;;2.33;;
37001;SDS011;22913;51.910;8.374;2023-03-23T10:06:53;4.37;;;2.40;;
37001;SDS011;22913;51.910;8.374;2023-03-23T10:09:44;5.97;;;2.30;;
37001;SDS011;22913;51.910;8.374;2023-03-23T10:12:41;5.50;;;2.07;;
37001;SDS011;22913;51.910;8.374;2023-03-23T10:15:33;3.77;;;2.03;;
37001;SDS011;22913;51.910;8.374;2023-03-23T10:18:29;4.50;;;2.57;;
37001;SDS011;22913;51.910;8.374;2023-03-23T10:21:17;3.20;;;2.17;;
37001;SDS011;22913;51.910;8.374;2023-03-23T10:24:09;3.83;;;2.33;;
37001;SDS011;22913;51.910;8.374;2023-03-23T10:26:58;2.47;;;2.13;;
37001;SDS011;22913;51.910;8.374;2023-03-23T10:29:52;4.00;;;1.93;;
37001;SDS011;22913;51.910;8.374;2023-03-23T10:32:43;5.20;;;2.30;;
37001;SDS011;22913;51.910;8.374;2023-03-23T10:35:34;5.57;;;2.80;;
37001;SDS011;22913;51.910;8.374;2023-03-23T10:38:26;3.37;;;2.17;;
37001;SDS011;22913;51.910;8.374;2023-03-23T10:41:18;6.73;;;2.67;;
37001;SDS011;22913;51.910;8.374;2023-03-23T10:44:08;4.30;;;2.17;;
37001;SDS011;22913;51.910;8.374;2023-03-23T10:46:58;2.53;;;2.20;;
37001;SDS011;22913;51.910;8.374;2023-03-23T10:49:47;5.37;;;2.30;;
37001;SDS011;22913;51.910;8.374;2023-03-23T10:52:35;5.47;;;2.33;;
37001;SDS011;22913;51.910;8.374;2023-03-23T10:55:23;5.20;;;2.53;;
37001;SDS011;22913;51.910;8.374;2023-03-23T10:58:24;6.77;;;2.83;;
37001;SDS011;22913;51.910;8.374;2023-03-23T11:01:12;2.17;;;1.43;;
37001;SDS011;22913;51.910;8.374;2023-03-23T11:03:58;3.37;;;1.20;;
37001;SDS011;22913;51.910;8.374;2023-03-23T11:06:45;0.87;;;0.87;;
37001;SDS011;22913;51.910;8.374;2023-03-23T11:09:34;2.83;;;1.20;;
37001;SDS011;22913;51.910;8.374;2023-03-23T11:12:21;1.87;;;1.10;;
37001;SDS011;22913;51.910;8.374;2023-03-23T11:15:16;2.77;;;1.03;;
37001;SDS011;22913;51.910;8.374;2023-03-23T11:18:12;1.17;;;0.80;;
37001;SDS011;22913;51.910;8.374;2023-03-23T11:21:03;1.37;;;1.27;;
37001;SDS011;22913;51.910;8.374;2023-03-23T11:23:53;1.63;;;1.40;;
37001;SDS011;22913;51.910;8.374;2023-03-23T11:26:41;2.40;;;1.30;;
37001;SDS011;22913;51.910;8.374;2023-03-23T11:29:29;2.50;;;1.13;;
37001;SDS011;22913;51.910;8.374;2023-03-23T11:32:17;1.30;;;1.20;;
37001;SDS011;22913;51.910;8.374;2023-03-23T11:35:03;1.83;;;1.00;;
37001;SDS011;22913;51.910;8.374;2023-03-23T11:37:52;2.17;;;1.33;;
37001;SDS011;22913;51.910;8.374;2023-03-23T11:40:43;2.53;;;2.00;;
37001;SDS011;22913;51.910;8.374;2023-03-23T11:43:34;3.03;;;1.30;;
37001;SDS011;22913;51.910;8.374;2023-03-23T11:46:29;2.57;;;0.90;;
37001;SDS011;22913;51.910;8.374;2023-03-23T11:49:23;2.13;;;1.00;;
37001;SDS011;22913;51.910;8.374;2023-03-23T11:52:19;1.63;;;1.53;;
37001;SDS011;22913;51.910;8.374;2023-03-23T11:55:11;3.80;;;1.43;;
37001;SDS011;22913;51.910;8.374;2023-03-23T11:58:02;2.60;;;1.30;;
37001;SDS011;22913;51.910;8.374;2023-03-23T12:00:58;2.47;;;1.10;;
37001;SDS011;22913;51.910;8.374;2023-03-23T12:03:51;2.67;;;1.13;;
37001;SDS011;22913;51.910;8.374;2023-03-23T12:06:49;6.07;;;1.43;;
37001;SDS011;22913;51.910;8.374;2023-03-23T12:09:42;3.90;;;1.60;;
37001;SDS011;22913;51.910;8.374;2023-03-23T12:12:34;2.73;;;1.40;;
37001;SDS011;22913;51.910;8.374;2023-03-23T12:15:26;1.93;;;1.07;;
37001;SDS011;22913;51.910;8.374;2023-03-23T12:18:18;1.77;;;1.07;;
37001;SDS011;22913;51.910;8.374;2023-03-23T12:21:16;1.87;;;1.10;;
37001;SDS011;22913;51.910;8.374;2023-03-23T12:24:15;1.83;;;0.90;;
37001;SDS011;22913;51.910;8.374;2023-03-23T12:27:09;1.60;;;1.03;;
37001;SDS011;22913;51.910;8.374;2023-03-23T12:30:02;2.30;;;1.17;;
37001;SDS011;22913;51.910;8.374;2023-03-23T12:32:59;3.00;;;1.00;;
37001;SDS011;22913;51.910;8.374;2023-03-23T12:35:59;3.00;;;1.23;;
37001;SDS011;22913;51.910;8.374;2023-03-23T12:39:04;2.07;;;1.17;;
37001;SDS011;22913;51.910;8.374;2023-03-23T12:42:19;2.17;;;1.10;;
37001;SDS011;22913;51.910;8.374;2023-03-23T12:45:15;2.00;;;1.03;;
37001;SDS011;22913;51.910;8.374;2023-03-23T12:48:07;2.40;;;1.13;;
37001;SDS011;22913;51.910;8.374;2023-03-23T12:51:02;1.20;;;1.10;;
37001;SDS011;22913;51.910;8.374;2023-03-23T12:53:56;2.73;;;1.23;;
37001;SDS011;22913;51.910;8.374;2023-03-23T12:56:58;1.67;;;1.17;;
37001;SDS011;22913;51.910;8.374;2023-03-23T12:59:52;1.30;;;1.20;;
37001;SDS011;22913;51.910;8.374;2023-03-23T13:02:41;1.63;;;1.50;;
37001;SDS011;22913;51.910;8.374;2023-03-23T13:05:33;3.27;;;1.50;;
37001;SDS011;22913;51.910;8.374;2023-03-23T13:08:25;1.60;;;1.50;;
37001;SDS011;22913;51.910;8.374;2023-03-23T13:11:15;1.77;;;1.43;;
37001;SDS011;22913;51.910;8.374;2023-03-23T13:14:10;3.67;;;1.70;;
37001;SDS011;22913;51.910;8.374;2023-03-23T13:17:06;3.03;;;1.80;;
37001;SDS011;22913;51.910;8.374;2023-03-23T13:23:22;1.67;;;1.57;;
37001;SDS011;22913;51.910;8.374;2023-03-23T13:26:12;3.00;;;1.70;;
37001;SDS011;22913;51.910;8.374;2023-03-23T13:28:59;1.90;;;1.80;;
37001;SDS011;22913;51.910;8.374;2023-03-23T13:31:48;2.33;;;1.80;;
37001;SDS011;22913;51.910;8.374;2023-03-23T13:34:34;2.97;;;1.90;;
37001;SDS011;22913;51.910;8.374;2023-03-23T13:37:21;3.80;;;2.00;;
37001;SDS011;22913;51.910;8.374;2023-03-23T13:40:15;2.13;;;1.97;;
37001;SDS011;22913;51.910;8.374;2023-03-23T13:43:07;3.53;;;2.23;;
37001;SDS011;22913;51.910;8.374;2023-03-23T13:45:53;5.40;;;2.50;;
37001;SDS011;22913;51.910;8.374;2023-03-23T13:48:40;2.83;;;2.47;;
37001;SDS011;22913;51.910;8.374;2023-03-23T13:51:35;3.20;;;2.60;;
37001;SDS011;22913;51.910;8.374;2023-03-23T13:54:39;3.50;;;2.60;;
37001;SDS011;22913;51.910;8.374;2023-03-23T13:57:33;3.30;;;2.70;;
37001;SDS011;22913;51.910;8.374;2023-03-23T14:03:35;2.77;;;2.43;;
37001;SDS011;22913;51.910;8.374;2023-03-23T14:06:23;2.33;;;1.93;;
37001;SDS011;22913;51.910;8.374;2023-03-23T14:09:12;2.10;;;2.00;;
37001;SDS011;22913;51.910;8.374;2023-03-23T14:12:02;3.03;;;2.40;;
37001;SDS011;22913;51.910;8.374;2023-03-23T14:14:55;2.87;;;2.50;;
37001;SDS011;22913;51.910;8.374;2023-03-23T14:17:45;2.60;;;2.40;;
37001;SDS011;22913;51.910;8.374;2023-03-23T14:20:33;3.13;;;2.77;;
37001;SDS011;22913;51.910;8.374;2023-03-23T14:23:23;4.67;;;2.50;;
37001;SDS011;22913;51.910;8.374;2023-03-23T14:26:11;3.93;;;2.83;;
37001;SDS011;22913;51.910;8.374;2023-03-23T14:29:00;3.10;;;2.77;;
37001;SDS011;22913;51.910;8.374;2023-03-23T14:31:48;3.10;;;2.90;;
37001;SDS011;22913;51.910;8.374;2023-03-23T14:34:37;3.20;;;2.87;;
37001;SDS011;22913;51.910;8.374;2023-03-23T14:37:23;4.20;;;3.80;;
37001;SDS011;22913;51.910;8.374;2023-03-23T14:40:11;3.83;;;3.43;;
37001;SDS011;22913;51.910;8.374;2023-03-23T14:43:00;3.60;;;2.73;;
37001;SDS011;22913;51.910;8.374;2023-03-23T14:45:46;3.83;;;3.43;;
37001;SDS011;22913;51.910;8.374;2023-03-23T14:48:42;4.20;;;3.03;;
37001;SDS011;22913;51.910;8.374;2023-03-23T14:51:29;3.90;;;2.83;;
37001;SDS011;22913;51.910;8.374;2023-03-23T14:54:15;2.90;;;2.70;;
37001;SDS011;22913;51.910;8.374;2023-03-23T14:57:09;5.07;;;2.43;;
37001;SDS011;22913;51.910;8.374;2023-03-23T14:59:57;3.03;;;2.57;;
37001;SDS011;22913;51.910;8.374;2023-03-23T15:02:44;2.53;;;2.33;;
37001;SDS011;22913;51.910;8.374;2023-03-23T15:05:33;3.27;;;2.40;;
37001;SDS011;22913;51.910;8.374;2023-03-23T15:08:23;3.20;;;2.20;;
37001;SDS011;22913;51.910;8.374;2023-03-23T15:11:21;2.70;;;1.93;;
37001;SDS011;22913;51.910;8.374;2023-03-23T15:14:14;2.27;;;2.07;;
37001;SDS011;22913;51.910;8.374;2023-03-23T15:17:02;3.17;;;2.40;;
37001;SDS011;22913;51.910;8.374;2023-03-23T15:19:48;3.30;;;2.20;;
37001;SDS011;22913;51.910;8.374;2023-03-23T15:22:35;3.53;;;2.27;;
37001;SDS011;22913;51.910;8.374;2023-03-23T15:25:22;2.83;;;2.13;;
37001;SDS011;22913;51.910;8.374;2023-03-23T15:28:15;3.10;;;2.20;;
37001;SDS011;22913;51.910;8.374;2023-03-23T15:31:03;4.80;;;2.53;;
37001;SDS011;22913;51.910;8.374;2023-03-23T15:33:54;3.03;;;2.33;;
37001;SDS011;22913;51.910;8.374;2023-03-23T15:36:41;3.80;;;2.23;;
37001;SDS011;22913;51.910;8.374;2023-03-23T15:39:27;4.63;;;2.37;;
37001;SDS011;22913;51.910;8.374;2023-03-23T15:42:19;3.00;;;2.43;;
37001;SDS011;22913;51.910;8.374;2023-03-23T15:45:20;3.57;;;2.23;;
37001;SDS011;22913;51.910;8.374;2023-03-23T15:48:10;4.00;;;2.53;;
37001;SDS011;22913;51.910;8.374;2023-03-23T15:50:58;2.87;;;2.57;;
37001;SDS011;22913;51.910;8.374;2023-03-23T15:53:47;5.20;;;2.53;;
37001;SDS011;22913;51.910;8.374;2023-03-23T15:56:34;4.93;;;2.83;;
37001;SDS011;22913;51.910;8.374;2023-03-23T15:59:20;2.87;;;2.50;;
37001;SDS011;22913;51.910;8.374;2023-03-23T16:02:05;3.50;;;2.80;;
37001;SDS011;22913;51.910;8.374;2023-03-23T16:04:56;3.33;;;3.03;;
37001;SDS011;22913;51.910;8.374;2023-03-23T16:07:43;3.37;;;2.60;;
37001;SDS011;22913;51.910;8.374;2023-03-23T16:10:28;3.07;;;2.83;;
37001;SDS011;22913;51.910;8.374;2023-03-23T16:13:14;3.33;;;3.03;;
37001;SDS011;22913;51.910;8.374;2023-03-23T16:16:01;3.17;;;2.97;;
37001;SDS011;22913;51.910;8.374;2023-03-23T16:18:47;4.63;;;3.70;;
37001;SDS011;22913;51.910;8.374;2023-03-23T16:21:33;3.60;;;3.30;;
37001;SDS011;22913;51.910;8.374;2023-03-23T16:24:20;3.63;;;2.93;;
37001;SDS011;22913;51.910;8.374;2023-03-23T16:27:05;3.53;;;3.20;;
37001;SDS011;22913;51.910;8.374;2023-03-23T16:29:52;3.33;;;3.03;;
37001;SDS011;22913;51.910;8.374;2023-03-23T16:32:38;5.20;;;3.70;;
37001;SDS011;22913;51.910;8.374;2023-03-23T16:35:24;3.87;;;3.57;;
37001;SDS011;22913;51.910;8.374;2023-03-23T16:38:11;4.57;;;3.40;;
37001;SDS011;22913;51.910;8.374;2023-03-23T16:41:00;3.87;;;3.17;;
37001;SDS011;22913;51.910;8.374;2023-03-23T16:43:46;3.73;;;3.10;;
37001;SDS011;22913;51.910;8.374;2023-03-23T16:46:32;3.40;;;3.10;;
37001;SDS011;22913;51.910;8.374;2023-03-23T16:49:17;3.50;;;3.07;;
37001;SDS011;22913;51.910;8.374;2023-03-23T16:52:03;3.47;;;3.20;;
37001;SDS011;22913;51.910;8.374;2023-03-23T16:54:48;4.03;;;3.63;;
37001;SDS011;22913;51.910;8.374;2023-03-23T16:57:36;4.93;;;3.43;;
37001;SDS011;22913;51.910;8.374;2023-03-23T17:00:23;3.70;;;3.40;;
37001;SDS011;22913;51.910;8.374;2023-03-23T17:03:09;3.47;;;3.17;;